sensor_id;sensor_type;location;lat;lon;timestamp;pressure;altitude;pressure_sealevel;temperature;humidity
46718;BME280;32448;44.960;-0.698;2023-11-19T00:00:19;102167.81;;;8.53;100.00
46718;BME280;32448;44.960;-0.698;2023-11-19T00:02:47;102166.94;;;8.53;100.00
46718;BME280;32448;44.960;-0.698;2023-11-19T00:05:14;102165.13;;;8.52;100.00
46718;BME280;32448;44.960;-0.698;2023-11-19T00:07:42;102161.63;;;8.51;100.00
46718;BME280;32448;44.960;-0.698;2023-11-19T00:10:11;102167.63;;;8.49;100.00
46718;BME280;32448;44.960;-0.698;2023-11-19T00:12:43;102155.25;;;8.45;100.00
46718;BME280;32448;44.960;-0.698;2023-11-19T00:15:16;102156.88;;;8.43;100.00
46718;BME280;32448;44.960;-0.698;2023-11-19T00:17:47;102156.06;;;8.44;100.00
46718;BME280;32448;44.960;-0.698;2023-11-19T00:20:18;102155.41;;;8.48;100.00
46718;BME280;32448;44.960;-0.698;2023-11-19T00:22:46;102162.34;;;8.47;100.00
46718;BME280;32448;44.960;-0.698;2023-11-19T00:25:18;102132.13;;;8.33;100.00
46718;BME280;32448;44.960;-0.698;2023-11-19T00:27:45;102145.38;;;8.37;100.00
46718;BME280;32448;44.960;-0.698;2023-11-19T00:30:13;102138.44;;;8.38;100.00
46718;BME280;32448;44.960;-0.698;2023-11-19T00:32:41;102146.31;;;8.39;100.00
46718;BME280;32448;44.960;-0.698;2023-11-19T00:35:08;102142.88;;;8.40;100.00
46718;BME280;32448;44.960;-0.698;2023-11-19T00:37:37;102141.06;;;8.38;100.00
46718;BME280;32448;44.960;-0.698;2023-11-19T00:40:04;102142.97;;;8.42;100.00
46718;BME280;32448;44.960;-0.698;2023-11-19T00:42:32;102137.47;;;8.36;100.00
46718;BME280;32448;44.960;-0.698;2023-11-19T00:44:59;102139.19;;;8.35;100.00
46718;BME280;32448;44.960;-0.698;2023-11-19T00:47:28;102144.41;;;8.35;100.00
46718;BME280;32448;44.960;-0.698;2023-11-19T00:49:55;102140.16;;;8.37;100.00
46718;BME280;32448;44.960;-0.698;2023-11-19T00:52:22;102139.19;;;8.35;100.00
46718;BME280;32448;44.960;-0.698;2023-11-19T00:54:48;102136.44;;;8.32;100.00
46718;BME280;32448;44.960;-0.698;2023-11-19T00:57:16;102146.84;;;8.32;100.00
46718;BME280;32448;44.960;-0.698;2023-11-19T00:59:43;102140.00;;;8.34;100.00
46718;BME280;32448;44.960;-0.698;2023-11-19T01:02:10;102143.50;;;8.35;100.00
46718;BME280;32448;44.960;-0.698;2023-11-19T01:04:37;102135.53;;;8.32;100.00
46718;BME280;32448;44.960;-0.698;2023-11-19T01:07:04;102095.25;;;8.08;100.00
46718;BME280;32448;44.960;-0.698;2023-11-19T01:09:32;102132.94;;;8.32;100.00
46718;BME280;32448;44.960;-0.698;2023-11-19T01:12:02;102125.19;;;8.33;100.00
46718;BME280;32448;44.960;-0.698;2023-11-19T01:14:30;102130.41;;;8.33;100.00
46718;BME280;32448;44.960;-0.698;2023-11-19T01:16:57;102119.91;;;8.32;100.00
46718;BME280;32448;44.960;-0.698;2023-11-19T01:19:24;102125.00;;;8.30;100.00
46718;BME280;32448;44.960;-0.698;2023-11-19T01:21:51;102123.19;;;8.28;100.00
46718;BME280;32448;44.960;-0.698;2023-11-19T01:24:18;102110.06;;;8.26;100.00
46718;BME280;32448;44.960;-0.698;2023-11-19T01:26:46;102114.47;;;8.27;100.00
46718;BME280;32448;44.960;-0.698;2023-11-19T01:29:14;102101.94;;;8.20;100.00
46718;BME280;32448;44.960;-0.698;2023-11-19T01:31:46;102113.50;;;8.25;100.00
46718;BME280;32448;44.960;-0.698;2023-11-19T01:34:14;102106.50;;;8.24;100.00
46718;BME280;32448;44.960;-0.698;2023-11-19T01:36:41;102100.16;;;8.19;100.00
46718;BME280;32448;44.960;-0.698;2023-11-19T01:39:08;102114.47;;;8.27;100.00
46718;BME280;32448;44.960;-0.698;2023-11-19T01:41:35;102118.91;;;8.30;100.00
46718;BME280;32448;44.960;-0.698;2023-11-19T01:44:02;102103.00;;;8.24;100.00
46718;BME280;32448;44.960;-0.698;2023-11-19T01:46:30;102116.25;;;8.28;100.00
46718;BME280;32448;44.960;-0.698;2023-11-19T01:49:00;102107.59;;;8.29;100.00
46718;BME280;32448;44.960;-0.698;2023-11-19T01:51:27;102114.03;;;8.36;100.00
46718;BME280;32448;44.960;-0.698;2023-11-19T01:53:56;102112.41;;;8.38;100.00
46718;BME280;32448;44.960;-0.698;2023-11-19T01:56:25;102121.31;;;8.43;100.00
46718;BME280;32448;44.960;-0.698;2023-11-19T01:58:54;102109.16;;;8.44;100.00
46718;BME280;32448;44.960;-0.698;2023-11-19T02:01:23;102103.63;;;8.36;100.00
46718;BME280;32448;44.960;-0.698;2023-11-19T02:03:51;102118.69;;;8.43;100.00
46718;BME280;32448;44.960;-0.698;2023-11-19T02:06:19;102111.78;;;8.44;100.00
46718;BME280;32448;44.960;-0.698;2023-11-19T02:08:46;102100.84;;;8.33;100.00
46718;BME280;32448;44.960;-0.698;2023-11-19T02:11:13;102111.63;;;8.40;100.00
46718;BME280;32448;44.960;-0.698;2023-11-19T02:13:40;102114.72;;;8.51;100.00
46718;BME280;32448;44.960;-0.698;2023-11-19T02:16:08;102121.72;;;8.52;100.00
46718;BME280;32448;44.960;-0.698;2023-11-19T02:18:36;102101.50;;;8.47;100.00
46718;BME280;32448;44.960;-0.698;2023-11-19T02:21:03;102116.75;;;8.57;100.00
46718;BME280;32448;44.960;-0.698;2023-11-19T02:23:31;102111.69;;;8.60;100.00
46718;BME280;32448;44.960;-0.698;2023-11-19T02:28:50;102105.09;;;8.68;100.00
46718;BME280;32448;44.960;-0.698;2023-11-19T02:31:18;102104.44;;;8.72;100.00
46718;BME280;32448;44.960;-0.698;2023-11-19T02:33:46;102105.66;;;8.80;100.00
46718;BME280;32448;44.960;-0.698;2023-11-19T02:36:12;102107.63;;;8.86;100.00
46718;BME280;32448;44.960;-0.698;2023-11-19T02:38:39;102113.91;;;8.89;100.00
46718;BME280;32448;44.960;-0.698;2023-11-19T02:41:07;102102.97;;;8.98;100.00
46718;BME280;32448;44.960;-0.698;2023-11-19T02:43:34;102077.41;;;8.89;100.00
46718;BME280;32448;44.960;-0.698;2023-11-19T02:46:05;102094.63;;;9.05;100.00
46718;BME280;32448;44.960;-0.698;2023-11-19T02:48:38;102098.31;;;9.10;100.00
46718;BME280;32448;44.960;-0.698;2023-11-19T02:51:05;102094.19;;;9.15;100.00
46718;BME280;32448;44.960;-0.698;2023-11-19T02:53:36;102087.38;;;9.19;100.00
46718;BME280;32448;44.960;-0.698;2023-11-19T02:56:05;102099.00;;;9.25;100.00
46718;BME280;32448;44.960;-0.698;2023-11-19T02:58:52;102107.22;;;9.34;100.00
46718;BME280;32448;44.960;-0.698;2023-11-19T03:01:23;102095.13;;;9.36;100.00
46718;BME280;32448;44.960;-0.698;2023-11-19T03:03:58;102096.28;;;9.43;100.00
46718;BME280;32448;44.960;-0.698;2023-11-19T03:06:26;102079.41;;;9.35;100.00
46718;BME280;32448;44.960;-0.698;2023-11-19T03:08:55;102097.44;;;9.49;100.00
46718;BME280;32448;44.960;-0.698;2023-11-19T03:11:22;102109.09;;;9.58;100.00
46718;BME280;32448;44.960;-0.698;2023-11-19T03:13:48;102102.16;;;9.58;100.00
46718;BME280;32448;44.960;-0.698;2023-11-19T03:16:15;102084.63;;;9.56;100.00
46718;BME280;32448;44.960;-0.698;2023-11-19T03:18:44;102103.56;;;9.71;100.00
46718;BME280;32448;44.960;-0.698;2023-11-19T03:21:11;102095.75;;;9.72;100.00
46718;BME280;32448;44.960;-0.698;2023-11-19T03:23:39;102095.91;;;9.75;100.00
46718;BME280;32448;44.960;-0.698;2023-11-19T03:26:07;102094.38;;;9.80;100.00
46718;BME280;32448;44.960;-0.698;2023-11-19T03:28:35;102105.88;;;9.85;100.00
46718;BME280;32448;44.960;-0.698;2023-11-19T03:31:04;102101.63;;;9.88;100.00
46718;BME280;32448;44.960;-0.698;2023-11-19T03:33:35;102104.50;;;9.94;100.00
46718;BME280;32448;44.960;-0.698;2023-11-19T03:36:02;102092.44;;;9.97;100.00
46718;BME280;32448;44.960;-0.698;2023-11-19T03:38:28;102091.81;;;10.03;100.00
46718;BME280;32448;44.960;-0.698;2023-11-19T03:40:55;102096.44;;;10.10;100.00
46718;BME280;32448;44.960;-0.698;2023-11-19T03:43:22;102094.84;;;10.13;100.00
46718;BME280;32448;44.960;-0.698;2023-11-19T03:45:49;102087.97;;;10.15;100.00
46718;BME280;32448;44.960;-0.698;2023-11-19T03:48:15;102089.06;;;10.20;100.00
46718;BME280;32448;44.960;-0.698;2023-11-19T03:50:43;102087.53;;;10.26;100.00
46718;BME280;32448;44.960;-0.698;2023-11-19T03:53:11;102090.16;;;10.26;100.00
46718;BME280;32448;44.960;-0.698;2023-11-19T03:55:38;102096.56;;;10.34;100.00
46718;BME280;32448;44.960;-0.698;2023-11-19T03:58:05;102101.31;;;10.44;100.00
46718;BME280;32448;44.960;-0.698;2023-11-19T04:00:32;102100.47;;;10.45;100.00
46718;BME280;32448;44.960;-0.698;2023-11-19T04:02:59;102099.59;;;10.44;100.00
46718;BME280;32448;44.960;-0.698;2023-11-19T04:05:26;102099.78;;;10.49;100.00
46718;BME280;32448;44.960;-0.698;2023-11-19T04:07:53;102103.44;;;10.54;100.00
46718;BME280;32448;44.960;-0.698;2023-11-19T04:10:20;102098.28;;;10.55;100.00
46718;BME280;32448;44.960;-0.698;2023-11-19T04:12:47;102091.38;;;10.57;100.00
46718;BME280;32448;44.960;-0.698;2023-11-19T04:15:14;102098.56;;;10.63;100.00
46718;BME280;32448;44.960;-0.698;2023-11-19T04:17:41;102105.50;;;10.63;100.00
46718;BME280;32448;44.960;-0.698;2023-11-19T04:20:08;102100.53;;;10.69;100.00
46718;BME280;32448;44.960;-0.698;2023-11-19T04:22:39;102091.78;;;10.68;100.00
46718;BME280;32448;44.960;-0.698;2023-11-19T04:25:06;102097.09;;;10.70;100.00
46718;BME280;32448;44.960;-0.698;2023-11-19T04:27:33;102105.16;;;10.76;100.00
46718;BME280;32448;44.960;-0.698;2023-11-19T04:30:00;102105.97;;;10.75;100.00
46718;BME280;32448;44.960;-0.698;2023-11-19T04:32:28;102095.50;;;10.75;100.00
46718;BME280;32448;44.960;-0.698;2023-11-19T04:34:55;102102.53;;;10.76;100.00
46718;BME280;32448;44.960;-0.698;2023-11-19T04:37:22;102099.28;;;10.81;100.00
46718;BME280;32448;44.960;-0.698;2023-11-19T04:39:49;102101.81;;;10.80;100.00
46718;BME280;32448;44.960;-0.698;2023-11-19T04:42:16;102102.72;;;10.80;100.00
46718;BME280;32448;44.960;-0.698;2023-11-19T04:44:44;102102.66;;;10.79;100.00
46718;BME280;32448;44.960;-0.698;2023-11-19T04:47:11;102094.94;;;10.82;100.00
46718;BME280;32448;44.960;-0.698;2023-11-19T04:49:41;102099.47;;;10.87;100.00
46718;BME280;32448;44.960;-0.698;2023-11-19T04:52:11;102107.25;;;10.86;100.00
46718;BME280;32448;44.960;-0.698;2023-11-19T04:54:43;102082.38;;;10.73;100.00
46718;BME280;32448;44.960;-0.698;2023-11-19T04:57:12;102110.00;;;10.89;100.00
46718;BME280;32448;44.960;-0.698;2023-11-19T04:59:39;102113.84;;;10.99;100.00
46718;BME280;32448;44.960;-0.698;2023-11-19T05:02:06;102106.69;;;10.93;100.00
46718;BME280;32448;44.960;-0.698;2023-11-19T05:04:33;102098.97;;;10.98;100.00
46718;BME280;32448;44.960;-0.698;2023-11-19T05:07:00;102112.25;;;11.02;100.00
46718;BME280;32448;44.960;-0.698;2023-11-19T05:09:27;102106.19;;;11.03;100.00
46718;BME280;32448;44.960;-0.698;2023-11-19T05:11:54;102120.19;;;11.05;100.00
46718;BME280;32448;44.960;-0.698;2023-11-19T05:14:21;102112.34;;;11.05;100.00
46718;BME280;32448;44.960;-0.698;2023-11-19T05:16:48;102111.56;;;11.08;100.00
46718;BME280;32448;44.960;-0.698;2023-11-19T05:19:16;102104.72;;;11.11;100.00
46718;BME280;32448;44.960;-0.698;2023-11-19T05:21:43;102103.88;;;11.12;100.00
46718;BME280;32448;44.960;-0.698;2023-11-19T05:24:10;102097.91;;;11.16;100.00
46718;BME280;32448;44.960;-0.698;2023-11-19T05:26:38;102107.53;;;11.17;100.00
46718;BME280;32448;44.960;-0.698;2023-11-19T05:29:05;102099.75;;;11.19;100.00
46718;BME280;32448;44.960;-0.698;2023-11-19T05:31:32;102100.66;;;11.19;100.00
46718;BME280;32448;44.960;-0.698;2023-11-19T05:34:03;102103.44;;;11.24;100.00
46718;BME280;32448;44.960;-0.698;2023-11-19T05:36:30;102112.56;;;11.35;100.00
46718;BME280;32448;44.960;-0.698;2023-11-19T05:38:57;102065.53;;;11.13;100.00
46718;BME280;32448;44.960;-0.698;2023-11-19T05:41:24;102109.94;;;11.35;100.00
46718;BME280;32448;44.960;-0.698;2023-11-19T05:43:51;102089.47;;;11.23;100.00
46718;BME280;32448;44.960;-0.698;2023-11-19T05:46:18;102106.50;;;11.36;100.00
46718;BME280;32448;44.960;-0.698;2023-11-19T05:48:47;102104.72;;;11.35;100.00
46718;BME280;32448;44.960;-0.698;2023-11-19T05:51:14;102104.84;;;11.40;100.00
46718;BME280;32448;44.960;-0.698;2023-11-19T05:53:42;102097.09;;;11.43;100.00
46718;BME280;32448;44.960;-0.698;2023-11-19T05:56:09;102106.03;;;11.48;100.00
46718;BME280;32448;44.960;-0.698;2023-11-19T05:58:36;102074.84;;;11.30;100.00
46718;BME280;32448;44.960;-0.698;2023-11-19T06:04:00;102095.50;;;11.46;100.00
46718;BME280;32448;44.960;-0.698;2023-11-19T06:06:28;102104.50;;;11.54;100.00
46718;BME280;32448;44.960;-0.698;2023-11-19T06:08:55;102089.44;;;11.49;100.00
46718;BME280;32448;44.960;-0.698;2023-11-19T06:11:22;102108.97;;;11.57;100.00
46718;BME280;32448;44.960;-0.698;2023-11-19T06:13:49;102103.13;;;11.65;100.00
46718;BME280;32448;44.960;-0.698;2023-11-19T06:16:18;102113.66;;;11.67;100.00
46718;BME280;32448;44.960;-0.698;2023-11-19T06:18:45;102099.44;;;11.60;100.00
46718;BME280;32448;44.960;-0.698;2023-11-19T06:21:12;102114.44;;;11.64;100.00
46718;BME280;32448;44.960;-0.698;2023-11-19T06:23:39;102104.69;;;11.60;100.00
46718;BME280;32448;44.960;-0.698;2023-11-19T06:26:06;102106.75;;;11.69;100.00
46718;BME280;32448;44.960;-0.698;2023-11-19T06:28:32;102100.25;;;11.58;100.00
46718;BME280;32448;44.960;-0.698;2023-11-19T06:30:59;102131.63;;;11.80;100.00
46718;BME280;32448;44.960;-0.698;2023-11-19T06:33:26;102094.03;;;11.54;100.00
46718;BME280;32448;44.960;-0.698;2023-11-19T06:35:53;102131.50;;;11.77;100.00
46718;BME280;32448;44.960;-0.698;2023-11-19T06:38:21;102127.94;;;11.75;100.00
46718;BME280;32448;44.960;-0.698;2023-11-19T06:40:48;102132.59;;;11.84;100.00
46718;BME280;32448;44.960;-0.698;2023-11-19T06:43:20;102135.44;;;11.90;100.00
46718;BME280;32448;44.960;-0.698;2023-11-19T06:45:48;102122.22;;;11.87;100.00
46718;BME280;32448;44.960;-0.698;2023-11-19T06:48:15;102130.97;;;11.87;100.00
46718;BME280;32448;44.960;-0.698;2023-11-19T06:50:42;102123.94;;;11.86;100.00
46718;BME280;32448;44.960;-0.698;2023-11-19T06:53:09;102125.78;;;11.89;100.00
46718;BME280;32448;44.960;-0.698;2023-11-19T06:55:37;102119.59;;;11.87;100.00
46718;BME280;32448;44.960;-0.698;2023-11-19T06:58:05;102129.53;;;11.97;100.00
46718;BME280;32448;44.960;-0.698;2023-11-19T07:00:33;102136.69;;;12.01;100.00
46718;BME280;32448;44.960;-0.698;2023-11-19T07:03:00;102111.97;;;11.94;100.00
46718;BME280;32448;44.960;-0.698;2023-11-19T07:05:27;102123.56;;;12.01;100.00
46718;BME280;32448;44.960;-0.698;2023-11-19T07:07:54;102129.72;;;12.01;100.00
46718;BME280;32448;44.960;-0.698;2023-11-19T07:10:22;102124.53;;;12.04;100.00
46718;BME280;32448;44.960;-0.698;2023-11-19T07:12:49;102133.41;;;12.08;100.00
46718;BME280;32448;44.960;-0.698;2023-11-19T07:15:17;102133.41;;;12.08;100.00
46718;BME280;32448;44.960;-0.698;2023-11-19T07:17:44;102137.06;;;12.13;100.00
46718;BME280;32448;44.960;-0.698;2023-11-19T07:20:12;102114.09;;;12.06;100.00
46718;BME280;32448;44.960;-0.698;2023-11-19T07:22:45;102148.63;;;12.20;100.00
46718;BME280;32448;44.960;-0.698;2023-11-19T07:25:15;102146.81;;;12.17;100.00
46718;BME280;32448;44.960;-0.698;2023-11-19T07:27:42;102151.47;;;12.26;100.00
46718;BME280;32448;44.960;-0.698;2023-11-19T07:30:09;102124.69;;;12.09;100.00
46718;BME280;32448;44.960;-0.698;2023-11-19T07:32:36;102154.13;;;12.27;100.00
46718;BME280;32448;44.960;-0.698;2023-11-19T07:35:06;102161.78;;;12.21;100.00
46718;BME280;32448;44.960;-0.698;2023-11-19T07:37:33;102161.78;;;12.21;100.00
46718;BME280;32448;44.960;-0.698;2023-11-19T07:40:00;102165.50;;;12.28;100.00
46718;BME280;32448;44.960;-0.698;2023-11-19T07:42:27;102155.91;;;12.28;100.00
46718;BME280;32448;44.960;-0.698;2023-11-19T07:44:54;102152.44;;;12.29;100.00
46718;BME280;32448;44.960;-0.698;2023-11-19T07:47:22;102166.69;;;12.37;100.00
46718;BME280;32448;44.960;-0.698;2023-11-19T07:49:50;102160.53;;;12.35;100.00
46718;BME280;32448;44.960;-0.698;2023-11-19T07:52:17;102156.19;;;12.37;100.00
46718;BME280;32448;44.960;-0.698;2023-11-19T07:54:48;102160.66;;;12.40;100.00
46718;BME280;32448;44.960;-0.698;2023-11-19T07:57:15;102150.09;;;12.38;100.00
46718;BME280;32448;44.960;-0.698;2023-11-19T07:59:42;102174.31;;;12.57;100.00
46718;BME280;32448;44.960;-0.698;2023-11-19T08:02:08;102163.66;;;12.52;100.00
46718;BME280;32448;44.960;-0.698;2023-11-19T08:04:35;102176.03;;;12.56;100.00
46718;BME280;32448;44.960;-0.698;2023-11-19T08:07:03;102172.56;;;12.57;100.00
46718;BME280;32448;44.960;-0.698;2023-11-19T08:09:31;102172.56;;;12.57;100.00
46718;BME280;32448;44.960;-0.698;2023-11-19T08:11:59;102179.63;;;12.60;100.00
46718;BME280;32448;44.960;-0.698;2023-11-19T08:14:26;102165.72;;;12.62;100.00
46718;BME280;32448;44.960;-0.698;2023-11-19T08:16:53;102170.34;;;12.69;100.00
46718;BME280;32448;44.960;-0.698;2023-11-19T08:19:20;102176.69;;;12.77;100.00
46718;BME280;32448;44.960;-0.698;2023-11-19T08:21:48;102178.53;;;12.80;100.00
46718;BME280;32448;44.960;-0.698;2023-11-19T08:24:17;102178.66;;;12.85;100.00
46718;BME280;32448;44.960;-0.698;2023-11-19T08:26:47;102175.91;;;12.80;100.00
46718;BME280;32448;44.960;-0.698;2023-11-19T08:29:28;102190.09;;;12.87;100.00
46718;BME280;32448;44.960;-0.698;2023-11-19T08:31:57;102180.31;;;12.83;100.00
46718;BME280;32448;44.960;-0.698;2023-11-19T08:34:28;102189.28;;;12.89;100.00
46718;BME280;32448;44.960;-0.698;2023-11-19T08:36:59;102188.50;;;12.92;100.00
46718;BME280;32448;44.960;-0.698;2023-11-19T08:39:26;102177.00;;;12.88;100.00
46718;BME280;32448;44.960;-0.698;2023-11-19T08:41:59;102177.13;;;12.91;100.00
46718;BME280;32448;44.960;-0.698;2023-11-19T08:44:26;102201.06;;;13.03;100.00
46718;BME280;32448;44.960;-0.698;2023-11-19T08:46:53;102192.25;;;13.00;100.00
46718;BME280;32448;44.960;-0.698;2023-11-19T08:49:20;102199.53;;;13.10;100.00
46718;BME280;32448;44.960;-0.698;2023-11-19T08:51:47;102203.00;;;13.09;100.00
46718;BME280;32448;44.960;-0.698;2023-11-19T08:54:14;102202.47;;;13.19;100.00
46718;BME280;32448;44.960;-0.698;2023-11-19T08:56:40;102209.63;;;13.25;100.00
46718;BME280;32448;44.960;-0.698;2023-11-19T08:59:07;102200.03;;;13.25;100.00
46718;BME280;32448;44.960;-0.698;2023-11-19T09:01:35;102204.50;;;13.29;100.00
46718;BME280;32448;44.960;-0.698;2023-11-19T09:04:02;102206.59;;;13.41;100.00
46718;BME280;32448;44.960;-0.698;2023-11-19T09:06:31;102214.56;;;13.44;100.00
46718;BME280;32448;44.960;-0.698;2023-11-19T09:08:58;102202.28;;;13.43;100.00
46718;BME280;32448;44.960;-0.698;2023-11-19T09:11:29;102190.72;;;13.36;100.00
46718;BME280;32448;44.960;-0.698;2023-11-19T09:13:56;102200.78;;;13.53;100.00
46718;BME280;32448;44.960;-0.698;2023-11-19T09:16:23;102201.78;;;13.56;100.00
46718;BME280;32448;44.960;-0.698;2023-11-19T09:18:50;102215.25;;;13.70;100.00
46718;BME280;32448;44.960;-0.698;2023-11-19T09:21:17;102207.28;;;13.65;100.00
46718;BME280;32448;44.960;-0.698;2023-11-19T09:23:44;102180.63;;;13.52;100.00
46718;BME280;32448;44.960;-0.698;2023-11-19T09:26:11;102203.91;;;13.71;100.00
46718;BME280;32448;44.960;-0.698;2023-11-19T09:28:38;102208.59;;;13.82;100.00
46718;BME280;32448;44.960;-0.698;2023-11-19T09:31:15;102210.44;;;13.85;100.00
46718;BME280;32448;44.960;-0.698;2023-11-19T09:33:42;102188.47;;;13.83;100.00
46718;BME280;32448;44.960;-0.698;2023-11-19T09:36:11;102205.50;;;13.97;100.00
46718;BME280;32448;44.960;-0.698;2023-11-19T09:38:40;102197.69;;;14.00;100.00
46718;BME280;32448;44.960;-0.698;2023-11-19T09:41:07;102212.09;;;14.16;100.00
46718;BME280;32448;44.960;-0.698;2023-11-19T09:43:35;102200.75;;;14.17;100.00
46718;BME280;32448;44.960;-0.698;2023-11-19T09:46:06;102211.66;;;14.32;100.00
46718;BME280;32448;44.960;-0.698;2023-11-19T09:48:35;102189.72;;;14.32;100.00
46718;BME280;32448;44.960;-0.698;2023-11-19T09:51:03;102200.66;;;14.47;100.00
46718;BME280;32448;44.960;-0.698;2023-11-19T09:53:31;102199.97;;;14.55;100.00
46718;BME280;32448;44.960;-0.698;2023-11-19T09:56:02;102200.97;;;14.61;100.00
46718;BME280;32448;44.960;-0.698;2023-11-19T09:58:30;102209.13;;;14.73;100.00
46718;BME280;32448;44.960;-0.698;2023-11-19T10:01:00;102206.47;;;14.71;100.00
46718;BME280;32448;44.960;-0.698;2023-11-19T10:03:47;102198.78;;;14.80;100.00
46718;BME280;32448;44.960;-0.698;2023-11-19T10:06:15;102202.41;;;14.85;100.00
46718;BME280;32448;44.960;-0.698;2023-11-19T10:08:43;102208.81;;;14.97;100.00
46718;BME280;32448;44.960;-0.698;2023-11-19T10:11:10;102205.44;;;15.02;100.00
46718;BME280;32448;44.960;-0.698;2023-11-19T10:13:40;102207.25;;;15.06;100.00
46718;BME280;32448;44.960;-0.698;2023-11-19T10:16:12;102203.03;;;15.14;100.00
46718;BME280;32448;44.960;-0.698;2023-11-19T10:18:48;102212.88;;;15.21;100.00
46718;BME280;32448;44.960;-0.698;2023-11-19T10:21:19;102198.84;;;15.22;100.00
46718;BME280;32448;44.960;-0.698;2023-11-19T10:23:54;102199.84;;;15.29;100.00
46718;BME280;32448;44.960;-0.698;2023-11-19T10:26:23;102205.31;;;15.40;100.00
46718;BME280;32448;44.960;-0.698;2023-11-19T10:28:50;102193.91;;;15.39;100.00
46718;BME280;32448;44.960;-0.698;2023-11-19T10:31:18;102196.66;;;15.45;100.00
46718;BME280;32448;44.960;-0.698;2023-11-19T10:33:45;102198.50;;;15.49;100.00
46718;BME280;32448;44.960;-0.698;2023-11-19T10:36:14;102197.66;;;15.52;100.00
46718;BME280;32448;44.960;-0.698;2023-11-19T10:38:51;102173.84;;;15.47;100.00
46718;BME280;32448;44.960;-0.698;2023-11-19T10:41:28;102180.97;;;15.51;100.00
46718;BME280;32448;44.960;-0.698;2023-11-19T10:43:57;102193.41;;;15.58;100.00
46718;BME280;32448;44.960;-0.698;2023-11-19T10:46:41;102183.69;;;15.54;100.00
46718;BME280;32448;44.960;-0.698;2023-11-19T10:49:08;102189.94;;;15.59;100.00
46718;BME280;32448;44.960;-0.698;2023-11-19T10:51:35;102196.94;;;15.59;100.00
46718;BME280;32448;44.960;-0.698;2023-11-19T10:54:04;102159.53;;;15.33;100.00
46718;BME280;32448;44.960;-0.698;2023-11-19T10:56:34;102196.13;;;15.61;100.00
46718;BME280;32448;44.960;-0.698;2023-11-19T10:59:02;102196.09;;;15.60;100.00
46718;BME280;32448;44.960;-0.698;2023-11-19T11:01:50;102197.00;;;15.62;100.00
46718;BME280;32448;44.960;-0.698;2023-11-19T11:04:23;102195.28;;;15.62;100.00
46718;BME280;32448;44.960;-0.698;2023-11-19T11:06:51;102186.47;;;15.62;100.00
46718;BME280;32448;44.960;-0.698;2023-11-19T11:09:18;102192.72;;;15.69;100.00
46718;BME280;32448;44.960;-0.698;2023-11-19T11:11:49;102186.59;;;15.70;100.00
46718;BME280;32448;44.960;-0.698;2023-11-19T11:14:18;102191.09;;;15.74;100.00
46718;BME280;32448;44.960;-0.698;2023-11-19T11:16:48;102187.66;;;15.78;100.00
46718;BME280;32448;44.960;-0.698;2023-11-19T11:19:18;102170.88;;;15.74;100.00
46718;BME280;32448;44.960;-0.698;2023-11-19T11:21:50;102176.22;;;15.77;100.00
46718;BME280;32448;44.960;-0.698;2023-11-19T11:24:40;102177.34;;;15.90;100.00
46718;BME280;32448;44.960;-0.698;2023-11-19T11:30:24;102161.75;;;16.05;100.00
46718;BME280;32448;44.960;-0.698;2023-11-19T11:33:58;102163.66;;;16.14;100.00
46718;BME280;32448;44.960;-0.698;2023-11-19T11:38:36;102153.28;;;16.26;100.00
46718;BME280;32448;44.960;-0.698;2023-11-19T11:41:22;102148.00;;;16.26;100.00
46718;BME280;32448;44.960;-0.698;2023-11-19T11:43:55;102132.25;;;16.29;100.00
46718;BME280;32448;44.960;-0.698;2023-11-19T11:49:08;102132.50;;;16.46;100.00
46718;BME280;32448;44.960;-0.698;2023-11-19T11:54:28;102145.00;;;16.59;100.00
46718;BME280;32448;44.960;-0.698;2023-11-19T12:02:10;102147.97;;;16.82;100.00
46718;BME280;32448;44.960;-0.698;2023-11-19T12:04:38;102140.13;;;16.86;100.00
46718;BME280;32448;44.960;-0.698;2023-11-19T12:07:08;102115.38;;;16.77;100.00
46718;BME280;32448;44.960;-0.698;2023-11-19T12:09:40;102119.00;;;16.86;100.00
46718;BME280;32448;44.960;-0.698;2023-11-19T12:17:47;102106.75;;;16.90;100.00
46718;BME280;32448;44.960;-0.698;2023-11-19T12:20:19;102128.88;;;17.02;100.00
46718;BME280;32448;44.960;-0.698;2023-11-19T12:22:50;102129.75;;;17.01;100.00
46718;BME280;32448;44.960;-0.698;2023-11-19T12:25:19;102120.06;;;17.00;100.00
46718;BME280;32448;44.960;-0.698;2023-11-19T12:27:50;102091.78;;;16.92;100.00
46718;BME280;32448;44.960;-0.698;2023-11-19T12:32:49;102104.34;;;17.14;100.00
46718;BME280;32448;44.960;-0.698;2023-11-19T12:35:16;102109.63;;;17.13;100.00
46718;BME280;32448;44.960;-0.698;2023-11-19T12:37:45;102112.41;;;17.22;100.00
46718;BME280;32448;44.960;-0.698;2023-11-19T12:42:39;102085.78;;;17.06;100.00
46718;BME280;32448;44.960;-0.698;2023-11-19T12:45:06;102093.06;;;17.27;100.00
46718;BME280;32448;44.960;-0.698;2023-11-19T12:47:34;102101.94;;;17.32;100.00
46718;BME280;32448;44.960;-0.698;2023-11-19T12:50:01;102078.97;;;17.27;100.00
46718;BME280;32448;44.960;-0.698;2023-11-19T12:52:28;102088.72;;;17.31;100.00
46718;BME280;32448;44.960;-0.698;2023-11-19T12:54:55;102071.03;;;17.27;100.00
46718;BME280;32448;44.960;-0.698;2023-11-19T12:57:38;102087.91;;;17.41;100.00
46718;BME280;32448;44.960;-0.698;2023-11-19T13:00:06;102066.63;;;17.27;100.00
46718;BME280;32448;44.960;-0.698;2023-11-19T13:02:51;102086.09;;;17.35;100.00
46718;BME280;32448;44.960;-0.698;2023-11-19T13:07:48;102090.59;;;17.44;100.00
46718;BME280;32448;44.960;-0.698;2023-11-19T13:10:15;102080.13;;;17.55;100.00
46718;BME280;32448;44.960;-0.698;2023-11-19T13:13:04;102088.06;;;17.55;100.00
46718;BME280;32448;44.960;-0.698;2023-11-19T13:15:33;102083.69;;;17.60;100.00